• Join FlightAware (Why Join?)
  • Login
  • US Flag 
08:23PM EDT


 

Airport Tracker/Info


-or-


 

Live Flight TrackerFlight Track Log ✈ THY2467 ✈ 16-May-2013 ✈ LTAF / ADA - LTBA / IST

Flight Track Log - Related Links

Times and Time Zones

All times are in EDT time to prevent confusion due to time zone crossing. See the THY2467 flight status page for this flight to view local times or setup timezone preferences in your user account.

Time Position Orientation Groundspeed Altitude Reporting Facility
EDT Latitude Longitude Course Direction KTS MPH feet Rate Location/Type
12:09PM 37.3503 34.7363 311° West  Level Estimated
12:10PM 37.4027 34.6582 310° West  Level Estimated
12:11PM 37.4551 34.5799 310° West  Level Estimated
12:12PM 37.5074 34.5015 310° West  Level Estimated
12:13PM 37.5596 34.4231 310° West  Level Estimated
12:14PM 37.6118 34.3445 310° West  Level Estimated
12:15PM 37.6639 34.2658 310° West  Level Estimated
12:16PM 37.7160 34.1869 310° West  Level Estimated
12:17PM 37.7680 34.1080 310° West  Level Estimated
12:18PM 37.8200 34.0290 310° West  Level Estimated
12:19PM 37.8719 33.9498 310° West  Level Estimated
12:20PM 37.9238 33.8706 310° West  Level Estimated
12:21PM 37.9756 33.7912 310° West  Level Estimated
12:22PM 38.0274 33.7117 310° West  Level Estimated
12:23PM 38.0791 33.6321 310° West  Level Estimated
12:24PM 38.1308 33.5524 309° West  Level Estimated
12:25PM 38.1824 33.4726 309° West  Level Estimated
12:26PM 38.2339 33.3926 309° West  Level Estimated
12:27PM 38.2854 33.3126 309° West  Level Estimated
12:28PM 38.3368 33.2324 309° West  Level Estimated
12:29PM 38.3882 33.1521 309° West  Level Estimated
12:30PM 38.4396 33.0718 309° West  Level Estimated
12:31PM 38.4908 32.9913 309° West  Level Estimated
12:32PM 38.5421 32.9106 309° West  Level Estimated
12:33PM 38.5932 32.8299 309° West  Level Estimated
12:34PM 38.6443 32.7491 309° West  Level Estimated
12:35PM 38.6954 32.6681 309° West  Level Estimated
12:36PM 38.7464 32.5870 309° West  Level Estimated
12:37PM 38.7973 32.5058 309° West  Level Estimated
12:38PM 38.8482 32.4245 309° West  Level Estimated
12:39PM 38.8991 32.3431 309° West  Level Estimated
12:40PM 38.9498 32.2615 309° West  Level Estimated
12:41PM 39.0005 32.1799 309° West  Level Estimated
12:42PM 39.0512 32.0981 309° West  Level Estimated
12:43PM 39.1018 32.0162 309° West  Level Estimated
12:44PM 39.1524 31.9342 308° West  Level Estimated
12:45PM 39.2028 31.8521 308° West  Level Estimated
12:46PM 39.2533 31.7698 308° West  Level Estimated
12:47PM 39.3036 31.6874 308° West  Level Estimated
12:48PM 39.3540 31.6049 308° West  Level Estimated
12:49PM 39.4042 31.5223 308° West  Level Estimated
12:50PM 39.4544 31.4396 308° West  Level Estimated
12:51PM 39.5045 31.3568 308° West  Level Estimated
12:52PM 39.5546 31.2738 308° West  Level Estimated
12:53PM 39.6046 31.1907 308° West  Level Estimated
12:54PM 39.6546 31.1075 308° West  Level Estimated
12:55PM 39.7045 31.0242 308° West  Level Estimated
12:56PM 39.7543 30.9408 308° West  Level Estimated
12:57PM 39.8041 30.8572 308° West  Level Estimated
12:58PM 39.8538 30.7735 308° West  Level Estimated
12:59PM 39.9035 30.6897 308° West  Level Estimated
01:00PM 39.9531 30.6058 308° West  Level Estimated
01:01PM 40.0026 30.5217 308° West  Level Estimated
01:02PM 40.0521 30.4376 308° West  Level Estimated
01:03PM 40.1015 30.3533 307° West  Level Estimated
01:04PM 40.1509 30.2689 307° West  Level Estimated
01:05PM 40.2002 30.1843 307° West  Level Estimated
01:06PM 40.2494 30.0996 307° West  Level Estimated
01:07PM 40.2986 30.0149 307° West  Level Estimated
01:08PM 40.3477 29.9300 307° West  Level Estimated
01:09PM 40.3968 29.8449 307° West  Level Estimated
01:10PM 40.4458 29.7598 307° West  Level Estimated
01:11PM 40.4947 29.6745 307° West  Level Estimated
01:12PM 40.5435 29.5891 307° West  Level Estimated
01:13PM 40.5923 29.5035 307° West  Level Estimated
01:14PM 40.6411 29.4179 307° West  Level Estimated
01:15PM 40.6897 29.3321 307° West  Level Estimated
01:16PM 40.7383 29.2462 307° West  Level Estimated
01:17PM 40.7869 29.1602 307° West  Level Estimated
01:18PM 40.8354 29.0740 307° West  Level Estimated
01:19PM 40.8838 28.9877 307° West  Level Estimated
01:20PM 40.9321 28.9013 307° West  Level Estimated
01:21PM 40.9769 28.8211 306° West  Level Estimated
01:22PM 40.9769 28.8211 21° North  Level Estimated
01:23PM 40.9769 28.8211 21° North  Level Estimated
01:24PM 40.9769 28.8211 21° North  Level Estimated
01:25PM 40.9769 28.8211 21° North  Level Estimated
01:26PM 40.9769 28.8211 21° North  Level Estimated
01:27PM 40.9769 28.8211 21° North  Level Estimated
01:28PM 40.9769 28.8211 21° North  Level Estimated
01:29PM 40.9769 28.8211 21° North  Level Estimated
01:30PM 40.9769 28.8211 21° North  Level Estimated
01:31PM 40.9769 28.8211 21° North  Level Estimated
01:32PM 40.9769 28.8211 21° North  Level Estimated
01:33PM 40.9769 28.8211 21° North  Level Estimated
01:34PM 40.9769 28.8211 21° North  Level Estimated
01:35PM 40.9769 28.8211 21° North  Level Estimated
01:36PM 40.9769 28.8211 21° North  Level Estimated
01:37PM 40.9769 28.8211 21° North  Level Estimated